createdAt,value
2023-05-10T00:00:49.333Z,14.3668
2023-05-10T00:01:57.432Z,14.3580
2023-05-10T00:03:05.643Z,14.3503
2023-05-10T00:04:13.621Z,14.3504
2023-05-10T00:05:21.501Z,14.3277
2023-05-10T00:06:29.470Z,14.3244
2023-05-10T00:07:37.523Z,14.3252
2023-05-10T00:08:45.712Z,14.3229
2023-05-10T00:09:53.856Z,14.3328
2023-05-10T00:11:01.860Z,14.3236
2023-05-10T00:12:09.922Z,14.3233
2023-05-10T00:13:18.048Z,14.3221
2023-05-10T00:14:26.085Z,14.3103
2023-05-10T00:15:34.048Z,14.3208
2023-05-10T00:16:42.149Z,14.3233
2023-05-10T00:17:50.178Z,14.3271
2023-05-10T00:18:58.237Z,14.3133
2023-05-10T00:20:06.198Z,14.3044
2023-05-10T00:21:14.196Z,14.2983
2023-05-10T00:22:22.253Z,14.3112
2023-05-10T00:23:30.468Z,14.3153
2023-05-10T00:24:38.474Z,14.3221
2023-05-10T00:25:46.794Z,14.3292
2023-05-10T00:26:54.944Z,14.3284
2023-05-10T00:28:02.663Z,14.3408
2023-05-10T00:29:10.702Z,14.3393
2023-05-10T00:30:19.041Z,14.3404
2023-05-10T00:31:26.863Z,14.3376
2023-05-10T00:32:34.918Z,14.3385
2023-05-10T00:33:42.922Z,14.3359
2023-05-10T00:34:50.875Z,14.3393
2023-05-10T00:35:58.896Z,14.3521
2023-05-10T00:37:06.996Z,14.3561
2023-05-10T00:38:15.227Z,14.3698
2023-05-10T00:39:23.292Z,14.3744
2023-05-10T00:40:31.341Z,14.4020
2023-05-10T00:41:39.436Z,14.4257
2023-05-10T00:42:47.589Z,14.4387
2023-05-10T00:43:55.486Z,14.4625
2023-05-10T00:45:03.529Z,14.4749
2023-05-10T00:46:11.751Z,14.4972
2023-05-10T00:47:19.644Z,14.4957
2023-05-10T00:48:27.783Z,14.5157
2023-05-10T00:49:35.620Z,14.5491
2023-05-10T00:50:43.690Z,14.5489
2023-05-10T00:51:51.721Z,14.5542
2023-05-10T00:52:59.976Z,14.5611
2023-05-10T00:54:08.023Z,14.5672
2023-05-10T00:55:16.035Z,14.5613
2023-05-10T00:56:24.086Z,14.5546
2023-05-10T00:57:32.166Z,14.5605
2023-05-10T00:58:40.319Z,14.5497
2023-05-10T00:59:48.299Z,14.5480
2023-05-10T01:00:56.426Z,14.5411
2023-05-10T01:02:04.479Z,14.5388
2023-05-10T01:03:12.582Z,14.5500
2023-05-10T01:04:20.396Z,14.5241
2023-05-10T01:05:28.478Z,14.5153
2023-05-10T01:06:36.476Z,14.4860
2023-05-10T01:07:44.708Z,14.4886
2023-05-10T01:08:52.724Z,14.4781
2023-05-10T01:10:00.800Z,14.4688
2023-05-10T01:11:08.861Z,14.4795
2023-05-10T01:12:16.979Z,14.4673
2023-05-10T01:13:25.008Z,14.4467
2023-05-10T01:14:33.144Z,14.4486
2023-05-10T01:15:41.147Z,14.4762
2023-05-10T01:16:49.106Z,14.4749
2023-05-10T01:17:57.209Z,14.4808
2023-05-10T01:19:05.089Z,14.4694
2023-05-10T01:20:13.190Z,14.4589
2023-05-10T01:21:21.259Z,14.4610
2023-05-10T01:22:29.407Z,14.4646
2023-05-10T01:23:37.456Z,14.4688
2023-05-10T01:24:45.502Z,14.4877
2023-05-10T01:25:53.573Z,14.4793
2023-05-10T01:27:01.654Z,14.4749
2023-05-10T01:28:09.672Z,14.4720
2023-05-10T01:29:17.758Z,14.4703
2023-05-10T01:30:25.909Z,14.4793
2023-05-10T01:31:33.959Z,14.4726
2023-05-10T01:32:42.136Z,14.4869
2023-05-10T01:33:49.834Z,14.4863
2023-05-10T01:34:57.887Z,14.4905
2023-05-10T01:36:05.940Z,14.4779
2023-05-10T01:37:14.134Z,14.4789
2023-05-10T01:38:22.207Z,14.4894
2023-05-10T01:39:30.236Z,14.5069
2023-05-10T01:40:38.289Z,14.5159
2023-05-10T01:41:46.384Z,14.5047
2023-05-10T01:42:54.402Z,14.5027
2023-05-10T01:44:02.435Z,14.4968
2023-05-10T01:45:10.496Z,14.4997
2023-05-10T01:46:18.673Z,14.4963
2023-05-10T01:47:26.707Z,14.5031
2023-05-10T01:48:34.540Z,14.4717
2023-05-10T01:49:42.574Z,14.4690
2023-05-10T01:50:50.665Z,14.4787
2023-05-10T01:51:58.901Z,14.4705
2023-05-10T01:53:06.942Z,14.4825
2023-05-10T01:54:14.983Z,14.4911
2023-05-10T01:55:23.039Z,14.4944
2023-05-10T01:56:31.193Z,14.4810
2023-05-10T01:57:39.176Z,14.4825
2023-05-10T01:58:47.292Z,14.4848
2023-05-10T01:59:55.258Z,14.4848
2023-05-10T02:01:03.398Z,14.4949
2023-05-10T02:02:11.379Z,14.4774
2023-05-10T02:03:19.303Z,14.4831
2023-05-10T02:04:27.317Z,14.4989
2023-05-10T02:05:35.390Z,14.4854
2023-05-10T02:06:43.658Z,14.4804
2023-05-10T02:07:51.601Z,14.4751
2023-05-10T02:08:59.727Z,14.4932
2023-05-10T02:10:07.731Z,14.4785
2023-05-10T02:11:15.802Z,14.4659
2023-05-10T02:12:23.992Z,14.4820
2023-05-10T02:13:31.983Z,14.4780
2023-05-10T02:14:39.934Z,14.4842
2023-05-10T02:15:48.000Z,14.5027
2023-05-10T02:16:56.186Z,14.4932
2023-05-10T02:18:04.256Z,14.4732
2023-05-10T02:19:12.043Z,14.4917
2023-05-10T02:20:20.327Z,14.4713
2023-05-10T02:21:28.160Z,14.4657
2023-05-10T02:22:36.364Z,14.4585
2023-05-10T02:23:44.475Z,14.4717
2023-05-10T02:24:52.464Z,14.4995
2023-05-10T02:26:00.737Z,14.4923
2023-05-10T02:27:08.559Z,14.4766
2023-05-10T02:28:16.715Z,14.4709
2023-05-10T02:29:24.724Z,14.4812
2023-05-10T02:30:32.873Z,14.4614
2023-05-10T02:31:41.331Z,14.4743
2023-05-10T02:32:48.795Z,14.4577
2023-05-10T02:33:56.795Z,14.4636
2023-05-10T02:35:04.880Z,14.4554
2023-05-10T02:36:13.052Z,14.4608
2023-05-10T02:37:21.211Z,14.4764
2023-05-10T02:38:29.258Z,14.4804
2023-05-10T02:39:37.261Z,14.5098
2023-05-10T02:40:45.269Z,14.5216
2023-05-10T02:41:53.398Z,14.5235
2023-05-10T02:43:01.416Z,14.5117
2023-05-10T02:44:09.692Z,14.5285
2023-05-10T02:45:17.609Z,14.5279
2023-05-10T02:46:25.790Z,14.5172
2023-05-10T02:47:33.624Z,14.5314
2023-05-10T02:48:41.535Z,14.5365
2023-05-10T02:49:49.583Z,14.5476
2023-05-10T02:50:57.886Z,14.5436
2023-05-10T02:52:10.735Z,14.5377
2023-05-10T02:53:19.019Z,14.5489
2023-05-10T02:54:26.833Z,14.5512
2023-05-10T02:55:34.921Z,14.5529
2023-05-10T02:56:42.984Z,14.5462
2023-05-10T02:57:50.981Z,14.5487
2023-05-10T02:58:59.102Z,14.5550
2023-05-10T03:00:07.109Z,14.5617
2023-05-10T03:01:15.053Z,14.5327
2023-05-10T03:02:23.146Z,14.5251
2023-05-10T03:03:31.120Z,14.5163
2023-05-10T03:04:39.433Z,14.5106
2023-05-10T03:05:47.353Z,14.5287
2023-05-10T03:06:55.441Z,14.5150
2023-05-10T03:08:03.599Z,14.5037
2023-05-10T03:09:11.679Z,14.5031
2023-05-10T03:10:19.726Z,14.5052
2023-05-10T03:11:27.673Z,14.5191
2023-05-10T03:12:35.695Z,14.5006
2023-05-10T03:13:43.825Z,14.5220
2023-05-10T03:14:51.990Z,14.5508
2023-05-10T03:15:59.782Z,14.5790
2023-05-10T03:17:07.803Z,14.5827
2023-05-10T03:18:15.925Z,14.5745
2023-05-10T03:19:24.185Z,14.5729
2023-05-10T03:20:32.182Z,14.5733
2023-05-10T03:21:40.262Z,14.5897
2023-05-10T03:22:48.109Z,14.6004
2023-05-10T03:23:56.345Z,14.6096
2023-05-10T03:25:04.524Z,14.6401
2023-05-10T03:26:12.393Z,14.6408
2023-05-10T03:27:20.472Z,14.6651
2023-05-10T03:28:28.654Z,14.6807
2023-05-10T03:29:36.620Z,14.6708
2023-05-10T03:30:44.506Z,14.6509
2023-05-10T03:31:52.684Z,14.6668
2023-05-10T03:33:00.785Z,14.6529
2023-05-10T03:34:08.861Z,14.6326
2023-05-10T03:35:16.987Z,14.6103
2023-05-10T03:36:24.945Z,14.6096
2023-05-10T03:37:32.971Z,14.5884
2023-05-10T03:38:41.078Z,14.5857
2023-05-10T03:39:49.210Z,14.5720
2023-05-10T03:40:57.468Z,14.5474
2023-05-10T03:42:05.290Z,14.5304
2023-05-10T03:43:13.323Z,14.5052
2023-05-10T03:44:21.412Z,14.4995
2023-05-10T03:45:29.254Z,14.4871
2023-05-10T03:46:37.388Z,14.5262
2023-05-10T03:47:45.505Z,14.5256
2023-05-10T03:48:53.578Z,14.5083
2023-05-10T03:50:01.678Z,14.4820
2023-05-10T03:51:09.835Z,14.4852
2023-05-10T03:52:17.921Z,14.4736
2023-05-10T03:53:26.161Z,14.4671
2023-05-10T03:54:34.000Z,14.4682
2023-05-10T03:55:41.978Z,14.4495
2023-05-10T03:56:50.033Z,14.4463
2023-05-10T03:57:58.128Z,14.4459
2023-05-10T03:59:06.041Z,14.4345
2023-05-10T04:00:14.046Z,14.4614
2023-05-10T04:01:22.021Z,14.4949
2023-05-10T04:02:30.213Z,14.5151
2023-05-10T04:03:38.383Z,14.5270
2023-05-10T04:04:46.383Z,14.5521
2023-05-10T04:05:54.367Z,14.5621
2023-05-10T04:07:02.436Z,14.5739
2023-05-10T04:08:10.449Z,14.5665
2023-05-10T04:09:18.567Z,14.5499
2023-05-10T04:10:26.672Z,14.5500
2023-05-10T04:11:34.799Z,14.5607
2023-05-10T04:12:42.836Z,14.5550
2023-05-10T04:13:50.766Z,14.5336
2023-05-10T04:14:58.703Z,14.5434
2023-05-10T04:16:06.843Z,14.5676
2023-05-10T04:17:14.905Z,14.5674
2023-05-10T04:18:23.025Z,14.5596
2023-05-10T04:19:31.105Z,14.5590
2023-05-10T04:20:39.140Z,14.5634
2023-05-10T04:21:47.181Z,14.5518
2023-05-10T04:22:55.237Z,14.5670
2023-05-10T04:24:03.155Z,14.5714
2023-05-10T04:25:11.521Z,14.5670
2023-05-10T04:26:19.411Z,14.5682
2023-05-10T04:27:27.517Z,14.5520
2023-05-10T04:28:35.532Z,14.5600
2023-05-10T04:29:43.511Z,14.5653
2023-05-10T04:30:51.545Z,14.5594
2023-05-10T04:31:59.567Z,14.5640
2023-05-10T04:33:07.889Z,14.5600
2023-05-10T04:34:15.806Z,14.5745
2023-05-10T04:35:23.873Z,14.5808
2023-05-10T04:36:31.933Z,14.5754
2023-05-10T04:37:39.949Z,14.5584
2023-05-10T04:38:48.077Z,14.5695
2023-05-10T04:39:56.114Z,14.5848
2023-05-10T04:41:04.164Z,14.5722
2023-05-10T04:42:12.454Z,14.5920
2023-05-10T04:43:20.247Z,14.5851
2023-05-10T04:44:28.181Z,14.5596
2023-05-10T04:45:36.225Z,14.5468
2023-05-10T04:46:44.361Z,14.5586
2023-05-10T04:47:52.713Z,14.5544
2023-05-10T04:49:00.562Z,14.5569
2023-05-10T04:50:08.697Z,14.5663
2023-05-10T04:51:16.765Z,14.5661
2023-05-10T04:52:24.763Z,14.5350
2023-05-10T04:53:32.886Z,14.5466
2023-05-10T04:54:41.051Z,14.5514
2023-05-10T04:55:49.090Z,14.5569
2023-05-10T04:56:57.058Z,14.5684
2023-05-10T04:58:05.051Z,14.5851
2023-05-10T04:59:13.019Z,14.6025
2023-05-10T05:00:21.046Z,14.5914
2023-05-10T05:01:29.263Z,14.5924
2023-05-10T05:02:37.397Z,14.6006
2023-05-10T05:03:45.679Z,14.6082
2023-05-10T05:04:53.406Z,14.6235
2023-05-10T05:06:01.578Z,14.6174
2023-05-10T05:07:09.536Z,14.6464
2023-05-10T05:08:17.672Z,14.6622
2023-05-10T05:09:25.650Z,14.6714
2023-05-10T05:10:33.825Z,14.6817
2023-05-10T05:11:41.815Z,14.7004
2023-05-10T05:12:49.841Z,14.6866
2023-05-10T05:13:57.755Z,14.6815
2023-05-10T05:15:07.849Z,14.6696
2023-05-10T05:16:18.852Z,14.6899
2023-05-10T05:17:26.988Z,14.6826
2023-05-10T05:18:34.971Z,14.7303
2023-05-10T05:19:42.983Z,14.7707
2023-05-10T05:20:51.061Z,14.7757
2023-05-10T05:21:59.105Z,14.7948
2023-05-10T05:23:07.239Z,14.8066
2023-05-10T05:24:15.238Z,14.7931
2023-05-10T05:25:23.169Z,14.8014
2023-05-10T05:26:31.469Z,14.8060
2023-05-10T05:27:39.339Z,14.7944
2023-05-10T05:28:47.362Z,14.7763
2023-05-10T05:29:55.380Z,14.7742
2023-05-10T05:31:03.540Z,14.7639
2023-05-10T05:32:11.610Z,14.7530
2023-05-10T05:33:19.768Z,14.7515
2023-05-10T05:34:27.747Z,14.7286
2023-05-10T05:35:35.814Z,14.7103
2023-05-10T05:36:43.831Z,14.7112
2023-05-10T05:37:52.088Z,14.7105
2023-05-10T05:39:00.041Z,14.7421
2023-05-10T05:40:07.998Z,14.7461
2023-05-10T05:41:16.100Z,14.7349
2023-05-10T05:42:24.014Z,14.7309
2023-05-10T05:43:32.016Z,14.7345
2023-05-10T05:44:40.127Z,14.7066
2023-05-10T05:45:48.309Z,14.7053
2023-05-10T05:46:56.631Z,14.7087
2023-05-10T05:48:04.499Z,14.7135
2023-05-10T05:49:12.449Z,14.7154
2023-05-10T05:50:20.556Z,14.7040
2023-05-10T05:51:28.595Z,14.6822
2023-05-10T05:52:36.643Z,14.6494
2023-05-10T05:53:44.740Z,14.6363
2023-05-10T05:54:52.754Z,14.6338
2023-05-10T05:56:00.854Z,14.6399
2023-05-10T05:57:08.739Z,14.6361
2023-05-10T05:58:16.825Z,14.6357
2023-05-10T05:59:24.904Z,14.6273
2023-05-10T06:00:33.149Z,14.6695
2023-05-10T06:01:41.168Z,14.7217
2023-05-10T06:02:49.326Z,14.7395
2023-05-10T06:03:57.323Z,14.7694
2023-05-10T06:05:05.339Z,14.7890
2023-05-10T06:06:13.385Z,14.8138
2023-05-10T06:07:21.422Z,14.8278
2023-05-10T06:08:29.600Z,14.8463
2023-05-10T06:09:37.524Z,14.8533
2023-05-10T06:10:45.589Z,14.8625
2023-05-10T06:11:53.530Z,14.8928
2023-05-10T06:13:01.594Z,14.9155
2023-05-10T06:14:09.683Z,14.9498
2023-05-10T06:15:18.066Z,14.9731
2023-05-10T06:16:26.050Z,15.0189
2023-05-10T06:17:34.006Z,15.0681
2023-05-10T06:18:42.002Z,15.1095
2023-05-10T06:19:50.128Z,15.1781
2023-05-10T06:20:58.204Z,15.2386
2023-05-10T06:22:06.224Z,15.2726
2023-05-10T06:23:14.459Z,15.2974
2023-05-10T06:24:22.348Z,15.3159
2023-05-10T06:25:30.358Z,15.3124
2023-05-10T06:26:38.297Z,15.2972
2023-05-10T06:27:49.766Z,15.2857
2023-05-10T06:28:59.456Z,15.2926
2023-05-10T06:30:13.071Z,15.2752
2023-05-10T06:31:20.387Z,15.2522
2023-05-10T06:32:28.518Z,15.2365
2023-05-10T06:33:36.532Z,15.1989
2023-05-10T06:34:44.687Z,15.1793
2023-05-10T06:35:52.662Z,15.1400
2023-05-10T06:37:00.852Z,15.1192
2023-05-10T06:38:08.769Z,15.0799
2023-05-10T06:39:16.699Z,15.0496
2023-05-10T06:40:24.933Z,15.0107
2023-05-10T06:41:32.785Z,14.9800
2023-05-10T06:42:41.184Z,14.9693
2023-05-10T06:43:49.084Z,14.9662
2023-05-10T06:44:57.323Z,14.9941
2023-05-10T06:46:05.242Z,14.9889
2023-05-10T06:47:13.218Z,14.9802
2023-05-10T06:48:21.308Z,14.9361
2023-05-10T06:49:29.365Z,14.9020
2023-05-10T06:50:37.407Z,14.8787
2023-05-10T06:51:45.455Z,14.8468
2023-05-10T06:52:53.530Z,14.8505
2023-05-10T06:54:01.460Z,14.8613
2023-05-10T06:55:09.513Z,14.8579
2023-05-10T06:56:17.602Z,14.9018
2023-05-10T06:57:31.794Z,14.9685
2023-05-10T06:58:38.692Z,15.0140
2023-05-10T06:59:46.752Z,15.0647
2023-05-10T07:00:54.831Z,15.0797
2023-05-10T07:02:02.899Z,15.0937
2023-05-10T07:03:11.038Z,15.0957
2023-05-10T07:04:19.223Z,15.1150
2023-05-10T07:05:27.053Z,15.1492
2023-05-10T07:06:35.169Z,15.1825
2023-05-10T07:07:43.072Z,15.2615
2023-05-10T07:08:51.091Z,15.2937
2023-05-10T07:09:59.128Z,15.3254
2023-05-10T07:11:07.327Z,15.3574
2023-05-10T07:12:16.046Z,15.4046
2023-05-10T07:13:23.651Z,15.4564
2023-05-10T07:14:31.511Z,15.5251
2023-05-10T07:15:39.580Z,15.5947
2023-05-10T07:16:47.654Z,15.6279
2023-05-10T07:17:55.711Z,15.6453
2023-05-10T07:19:03.792Z,15.6432
2023-05-10T07:20:11.954Z,15.6147
2023-05-10T07:21:20.009Z,15.5879
2023-05-10T07:22:27.809Z,15.5806
2023-05-10T07:23:35.894Z,15.6254
2023-05-10T07:24:43.901Z,15.6973
2023-05-10T07:25:52.104Z,15.7755
2023-05-10T07:27:00.261Z,15.8316
2023-05-10T07:28:08.197Z,15.8965
2023-05-10T07:29:16.411Z,16.0224
2023-05-10T07:30:24.413Z,16.1103
2023-05-10T07:31:32.429Z,16.1484
2023-05-10T07:32:40.596Z,16.1583
2023-05-10T07:33:48.538Z,16.1301
2023-05-10T07:34:56.628Z,16.0678
2023-05-10T07:36:04.626Z,16.0075
2023-05-10T07:37:12.583Z,15.9171
2023-05-10T07:38:20.633Z,15.8562
2023-05-10T07:39:28.690Z,15.8167
2023-05-10T07:40:36.927Z,15.7647
2023-05-10T07:41:45.199Z,15.7168
2023-05-10T07:42:53.038Z,15.6952
2023-05-10T07:44:01.063Z,15.6411
2023-05-10T07:45:09.247Z,15.6226
2023-05-10T07:46:17.510Z,15.6371
2023-05-10T07:47:25.330Z,15.6275
2023-05-10T07:48:33.368Z,15.6443
2023-05-10T07:49:41.367Z,15.6674
2023-05-10T07:50:49.429Z,15.7033
2023-05-10T07:51:57.342Z,15.7260
2023-05-10T07:53:05.476Z,15.7750
2023-05-10T07:54:13.469Z,15.7925
2023-05-10T07:55:21.664Z,15.8131
2023-05-10T07:56:29.778Z,15.8373
2023-05-10T07:57:37.876Z,15.8639
2023-05-10T07:58:45.891Z,15.8915
2023-05-10T07:59:53.938Z,15.9388
2023-05-10T08:01:02.075Z,15.9716
2023-05-10T08:02:10.035Z,15.9905
2023-05-10T08:03:18.208Z,16.0208
2023-05-10T08:04:26.238Z,16.0712
2023-05-10T08:05:35.807Z,16.0954
2023-05-10T08:06:47.140Z,16.1076
2023-05-10T08:07:55.056Z,16.1089
2023-05-10T08:09:03.153Z,16.1166
2023-05-10T08:10:11.283Z,16.1225
2023-05-10T08:11:19.372Z,16.1149
2023-05-10T08:12:27.406Z,16.1145
2023-05-10T08:13:35.561Z,16.1233
2023-05-10T08:14:43.602Z,16.0948
2023-05-10T08:15:51.823Z,16.0990
2023-05-10T08:16:59.807Z,16.0908
2023-05-10T08:18:07.873Z,16.0750
2023-05-10T08:19:15.813Z,16.0767
2023-05-10T08:20:23.819Z,16.1097
2023-05-10T08:21:31.848Z,16.1749
2023-05-10T08:22:39.792Z,16.2228
2023-05-10T08:23:47.900Z,16.2577
2023-05-10T08:24:56.268Z,16.2873
2023-05-10T08:26:04.131Z,16.3281
2023-05-10T08:27:12.222Z,16.3931
2023-05-10T08:28:20.261Z,16.5045
2023-05-10T08:29:30.440Z,16.5862
2023-05-10T08:30:41.449Z,16.6355
2023-05-10T08:31:49.343Z,16.7275
2023-05-10T08:32:57.352Z,16.7962
2023-05-10T08:34:05.385Z,16.8292
2023-05-10T08:35:13.337Z,16.8494
2023-05-10T08:36:21.359Z,16.8814
2023-05-10T08:37:29.400Z,16.9287
2023-05-10T08:38:37.643Z,16.9604
2023-05-10T08:39:45.736Z,16.9697
2023-05-10T08:40:53.738Z,16.9869
2023-05-10T08:42:01.784Z,16.9829
2023-05-10T08:43:09.849Z,16.9606
2023-05-10T08:44:17.881Z,16.9738
2023-05-10T08:45:26.009Z,17.0304
2023-05-10T08:46:34.033Z,17.0974
2023-05-10T08:47:42.069Z,17.1807
2023-05-10T08:48:50.173Z,17.2736
2023-05-10T08:49:58.078Z,17.3547
2023-05-10T08:51:06.095Z,17.4428
2023-05-10T08:52:14.141Z,17.4994
2023-05-10T08:53:22.378Z,17.5185
2023-05-10T08:54:30.417Z,17.5406
2023-05-10T08:55:38.451Z,17.5425
2023-05-10T08:56:49.199Z,17.5427
2023-05-10T08:57:59.475Z,17.5250
2023-05-10T08:59:07.578Z,17.4619
2023-05-10T09:00:15.703Z,17.4336
2023-05-10T09:01:23.710Z,17.4132
2023-05-10T09:02:31.774Z,17.3926
2023-05-10T09:03:39.828Z,17.3671
2023-05-10T09:04:47.902Z,17.3264
2023-05-10T09:05:55.809Z,17.3062
2023-05-10T09:07:03.829Z,17.2538
2023-05-10T09:08:12.150Z,17.1941
2023-05-10T09:09:20.170Z,17.1298
2023-05-10T09:10:28.224Z,17.1134
2023-05-10T09:11:36.194Z,17.1059
2023-05-10T09:12:44.260Z,17.1206
2023-05-10T09:13:52.301Z,17.1256
2023-05-10T09:15:00.584Z,17.0735
2023-05-10T09:16:20.342Z,17.0180
2023-05-10T09:17:21.299Z,16.9276
2023-05-10T09:18:29.322Z,16.8866
2023-05-10T09:19:37.333Z,16.8536
2023-05-10T09:20:45.623Z,16.8164
2023-05-10T09:21:53.593Z,16.7073
2023-05-10T09:23:01.634Z,16.6098
2023-05-10T09:24:09.722Z,16.5694
2023-05-10T09:25:18.121Z,16.4954
2023-05-10T09:26:25.861Z,16.4706
2023-05-10T09:27:33.887Z,16.4799
2023-05-10T09:28:41.931Z,16.4693
2023-05-10T09:29:50.058Z,16.4263
2023-05-10T09:30:58.124Z,16.4370
2023-05-10T09:32:05.956Z,16.4837
2023-05-10T09:33:14.062Z,16.5169
2023-05-10T09:34:22.130Z,16.5005
2023-05-10T09:35:30.342Z,16.5301
2023-05-10T09:36:38.492Z,16.5116
2023-05-10T09:37:46.402Z,16.4693
2023-05-10T09:38:54.493Z,16.3775
2023-05-10T09:40:02.482Z,16.2787
2023-05-10T09:41:10.694Z,16.1732
2023-05-10T09:42:18.633Z,16.0742
2023-05-10T09:43:26.672Z,16.0302
2023-05-10T09:44:34.748Z,15.9396
2023-05-10T09:45:42.799Z,15.8701
2023-05-10T09:46:50.739Z,15.8587
2023-05-10T09:47:58.790Z,15.8503
2023-05-10T09:49:06.787Z,15.8373
2023-05-10T09:50:14.983Z,15.8206
2023-05-10T09:51:23.130Z,15.7900
2023-05-10T09:52:31.086Z,15.7536
2023-05-10T09:53:39.160Z,15.7816
2023-05-10T09:54:47.212Z,15.8059
2023-05-10T09:55:55.316Z,15.8362
2023-05-10T09:57:03.318Z,15.9503
2023-05-10T09:58:11.659Z,16.0935
2023-05-10T09:59:19.423Z,16.2152
2023-05-10T10:00:27.613Z,16.2930
2023-05-10T10:01:35.500Z,16.3359
2023-05-10T10:02:43.513Z,16.3531
2023-05-10T10:03:51.522Z,16.3523
2023-05-10T10:04:59.895Z,16.3624
2023-05-10T10:06:15.901Z,16.3899
2023-05-10T10:07:20.678Z,16.4603
2023-05-10T10:08:28.736Z,16.5543
2023-05-10T10:09:36.770Z,16.6941
2023-05-10T10:10:46.017Z,16.8269
2023-05-10T10:11:53.001Z,16.9360
2023-05-10T10:13:00.963Z,17.0848
2023-05-10T10:14:09.059Z,17.2156
2023-05-10T10:15:17.105Z,17.3129
2023-05-10T10:16:25.021Z,17.3894
2023-05-10T10:17:33.097Z,17.4281
2023-05-10T10:18:41.308Z,17.4271
2023-05-10T10:19:49.310Z,17.4268
2023-05-10T10:20:57.421Z,17.4083
2023-05-10T10:22:05.539Z,17.3732
2023-05-10T10:23:15.170Z,17.3409
2023-05-10T10:24:26.395Z,17.3308
2023-05-10T10:25:34.602Z,17.3264
2023-05-10T10:26:42.515Z,17.3302
2023-05-10T10:27:50.596Z,17.3501
2023-05-10T10:28:58.501Z,17.3959
2023-05-10T10:30:06.546Z,17.4329
2023-05-10T10:31:14.713Z,17.4578
2023-05-10T10:32:22.800Z,17.4939
2023-05-10T10:33:30.996Z,17.5702
2023-05-10T10:34:38.905Z,17.6814
2023-05-10T10:35:46.982Z,17.8008
2023-05-10T10:36:55.006Z,17.8956
2023-05-10T10:38:03.141Z,18.0766
2023-05-10T10:39:11.146Z,18.2919
2023-05-10T10:40:19.275Z,18.3923
2023-05-10T10:41:27.222Z,18.5676
2023-05-10T10:42:35.351Z,18.7564
2023-05-10T10:43:43.244Z,18.8510
2023-05-10T10:44:51.278Z,19.0064
2023-05-10T10:45:59.362Z,19.2060
2023-05-10T10:47:07.728Z,19.3759
2023-05-10T10:48:15.636Z,19.5148
2023-05-10T10:49:23.628Z,19.6576
2023-05-10T10:50:31.809Z,19.8257
2023-05-10T10:51:39.915Z,19.9847
2023-05-10T10:52:48.002Z,20.0795
2023-05-10T10:53:55.851Z,20.1541
2023-05-10T10:55:04.118Z,20.2716
2023-05-10T10:56:12.031Z,20.2943
2023-05-10T10:57:20.077Z,20.3042
2023-05-10T10:58:27.954Z,20.3136
2023-05-10T10:59:36.018Z,20.3107
2023-05-10T11:00:44.114Z,20.2754
2023-05-10T11:01:52.395Z,20.1270
2023-05-10T11:03:00.378Z,19.8924
2023-05-10T11:04:08.379Z,19.6744
2023-05-10T11:05:16.575Z,19.4402
2023-05-10T11:06:24.680Z,19.2269
2023-05-10T11:07:32.605Z,18.9813
2023-05-10T11:08:40.595Z,18.7926
2023-05-10T11:09:48.661Z,18.5607
2023-05-10T11:10:56.910Z,18.3585
2023-05-10T11:12:04.844Z,18.1743
2023-05-10T11:13:12.683Z,17.9583
2023-05-10T11:14:20.733Z,17.8277
2023-05-10T11:15:28.775Z,17.7058
2023-05-10T11:16:37.011Z,17.5719
2023-05-10T11:17:45.259Z,17.4605
2023-05-10T11:18:53.091Z,17.3751
2023-05-10T11:20:01.114Z,17.2881
2023-05-10T11:21:09.341Z,17.1969
2023-05-10T11:22:17.194Z,17.1229
2023-05-10T11:23:25.367Z,17.0905
2023-05-10T11:24:33.452Z,17.0686
2023-05-10T11:25:41.644Z,17.0661
2023-05-10T11:26:49.476Z,17.0966
2023-05-10T11:27:57.448Z,17.1283
2023-05-10T11:29:05.520Z,17.1868
2023-05-10T11:30:13.647Z,17.2110
2023-05-10T11:31:21.829Z,17.1883
2023-05-10T11:32:29.819Z,17.2120
2023-05-10T11:33:37.925Z,17.2875
2023-05-10T11:34:45.849Z,17.3880
2023-05-10T11:35:53.968Z,17.5311
2023-05-10T11:37:01.984Z,17.6780
2023-05-10T11:38:10.075Z,17.7880
2023-05-10T11:39:18.054Z,17.8145
2023-05-10T11:40:26.137Z,17.8100
2023-05-10T11:41:34.394Z,17.8033
2023-05-10T11:42:42.116Z,17.7903
2023-05-10T11:43:50.136Z,17.8082
2023-05-10T11:44:58.248Z,17.8265
2023-05-10T11:46:06.633Z,17.8256
2023-05-10T11:47:15.309Z,17.8098
2023-05-10T11:48:22.589Z,17.7768
2023-05-10T11:49:30.855Z,17.6925
2023-05-10T11:50:38.631Z,17.6123
2023-05-10T11:51:46.678Z,17.5378
2023-05-10T11:52:54.801Z,17.4630
2023-05-10T11:54:02.867Z,17.3692
2023-05-10T11:55:10.859Z,17.3117
2023-05-10T11:56:18.939Z,17.2404
2023-05-10T11:57:27.020Z,17.1710
2023-05-10T11:58:34.905Z,17.1313
2023-05-10T11:59:43.345Z,17.0827
2023-05-10T12:00:51.020Z,17.1050
2023-05-10T12:01:59.177Z,17.1324
2023-05-10T12:03:07.374Z,17.2118
2023-05-10T12:04:15.445Z,17.2728
2023-05-10T12:05:23.366Z,17.3732
2023-05-10T12:06:31.468Z,17.5862
2023-05-10T12:07:39.547Z,17.9143
2023-05-10T12:08:47.520Z,18.3686
2023-05-10T12:09:55.570Z,18.8222
2023-05-10T12:11:03.646Z,19.0925
2023-05-10T12:12:11.706Z,19.2975
2023-05-10T12:13:19.649Z,19.4013
2023-05-10T12:14:27.718Z,19.4369
2023-05-10T12:15:35.755Z,19.3738
2023-05-10T12:16:43.987Z,19.2943
2023-05-10T12:17:52.075Z,19.1270
2023-05-10T12:19:00.077Z,18.9275
2023-05-10T12:20:08.088Z,18.7856
2023-05-10T12:21:16.194Z,18.5985
2023-05-10T12:22:24.224Z,18.4768
2023-05-10T12:23:32.334Z,18.3772
2023-05-10T12:24:40.384Z,18.3110
2023-05-10T12:25:48.417Z,18.2538
2023-05-10T12:26:56.425Z,18.1563
2023-05-10T12:28:04.423Z,18.1209
2023-05-10T12:29:12.428Z,18.1344
2023-05-10T12:30:20.482Z,18.1983
2023-05-10T12:31:28.836Z,18.2712
2023-05-10T12:32:36.750Z,18.3600
2023-05-10T12:33:44.798Z,18.5031
2023-05-10T12:34:52.860Z,18.6622
2023-05-10T12:36:00.894Z,18.8378
2023-05-10T12:37:08.905Z,18.9776
2023-05-10T12:38:17.077Z,19.1707
2023-05-10T12:39:25.046Z,19.3668
2023-05-10T12:40:33.221Z,19.4890
2023-05-10T12:41:43.518Z,19.5663
2023-05-10T12:42:53.999Z,19.6099
2023-05-10T12:44:02.025Z,19.6256
2023-05-10T12:45:10.069Z,19.5935
2023-05-10T12:46:18.315Z,19.4758
2023-05-10T12:47:26.442Z,19.3349
2023-05-10T12:48:34.383Z,19.1749
2023-05-10T12:49:42.475Z,19.0179
2023-05-10T12:50:50.453Z,18.8588
2023-05-10T12:51:58.517Z,18.7764
2023-05-10T12:53:06.630Z,18.6322
2023-05-10T12:54:14.818Z,18.5409
2023-05-10T12:55:22.704Z,18.4669
2023-05-10T12:56:30.854Z,18.4379
2023-05-10T12:57:38.677Z,18.4638
2023-05-10T12:58:46.760Z,18.5519
2023-05-10T12:59:54.804Z,18.6624
2023-05-10T13:01:03.172Z,18.7608
2023-05-10T13:02:11.060Z,18.8109
2023-05-10T13:03:19.285Z,18.8180
2023-05-10T13:04:27.201Z,18.8151
2023-05-10T13:05:35.285Z,18.7703
2023-05-10T13:06:43.348Z,18.6692
2023-05-10T13:07:51.472Z,18.5792
2023-05-10T13:08:59.509Z,18.5241
2023-05-10T13:10:07.586Z,18.4491
2023-05-10T13:11:15.694Z,18.3698
2023-05-10T13:12:23.537Z,18.2809
2023-05-10T13:13:31.606Z,18.1220
2023-05-10T13:14:39.623Z,17.9507
2023-05-10T13:15:47.788Z,17.8258
2023-05-10T13:16:55.973Z,17.7638
2023-05-10T13:18:04.120Z,17.6822
2023-05-10T13:19:12.256Z,17.6318
2023-05-10T13:20:20.014Z,17.6329
2023-05-10T13:21:28.079Z,17.6556
2023-05-10T13:22:40.197Z,17.7529
2023-05-10T13:23:49.098Z,17.9457
2023-05-10T13:24:57.134Z,18.6301
2023-05-10T13:26:05.088Z,19.2763
2023-05-10T13:27:13.108Z,19.8081
2023-05-10T13:28:21.176Z,20.3250
2023-05-10T13:29:29.421Z,20.7946
2023-05-10T13:30:37.418Z,21.2852
2023-05-10T13:31:45.540Z,21.8046
2023-05-10T13:32:53.575Z,22.2982
2023-05-10T13:34:01.716Z,22.5736
2023-05-10T13:35:09.548Z,22.5710
2023-05-10T13:36:17.823Z,22.6844
2023-05-10T13:37:25.808Z,22.5168
2023-05-10T13:38:33.832Z,22.2217
2023-05-10T13:39:42.057Z,21.9099
2023-05-10T13:40:49.808Z,21.5883
2023-05-10T13:41:57.852Z,21.3260
2023-05-10T13:43:05.954Z,21.0908
2023-05-10T13:44:14.263Z,20.8810